sensor_id;sensor_type;location;lat;lon;timestamp;P1;durP1;ratioP1;P2;durP2;ratioP2
74469;SDS011;62918;55.706;37.816;2023-06-10T00:00:07;3.25;;;2.53;;
74469;SDS011;62918;55.706;37.816;2023-06-10T00:00:38;3.58;;;2.00;;
74469;SDS011;62918;55.706;37.816;2023-06-10T00:01:11;5.10;;;1.88;;
74469;SDS011;62918;55.706;37.816;2023-06-10T00:01:41;2.65;;;1.98;;
74469;SDS011;62918;55.706;37.816;2023-06-10T00:02:13;4.30;;;2.03;;
74469;SDS011;62918;55.706;37.816;2023-06-10T00:02:44;4.47;;;1.52;;
74469;SDS011;62918;55.706;37.816;2023-06-10T00:03:14;3.67;;;1.70;;
74469;SDS011;62918;55.706;37.816;2023-06-10T00:03:45;2.97;;;1.90;;
74469;SDS011;62918;55.706;37.816;2023-06-10T00:04:15;4.10;;;1.90;;
74469;SDS011;62918;55.706;37.816;2023-06-10T00:04:49;3.00;;;1.95;;
74469;SDS011;62918;55.706;37.816;2023-06-10T00:05:20;3.95;;;2.05;;
74469;SDS011;62918;55.706;37.816;2023-06-10T00:05:51;4.05;;;1.90;;
74469;SDS011;62918;55.706;37.816;2023-06-10T00:06:22;3.08;;;1.90;;
74469;SDS011;62918;55.706;37.816;2023-06-10T00:06:54;4.15;;;2.17;;
74469;SDS011;62918;55.706;37.816;2023-06-10T00:07:25;4.10;;;1.75;;
74469;SDS011;62918;55.706;37.816;2023-06-10T00:07:56;2.83;;;1.73;;
74469;SDS011;62918;55.706;37.816;2023-06-10T00:08:27;3.63;;;1.88;;
74469;SDS011;62918;55.706;37.816;2023-06-10T00:08:59;2.85;;;1.88;;
74469;SDS011;62918;55.706;37.816;2023-06-10T00:09:31;3.70;;;1.83;;
74469;SDS011;62918;55.706;37.816;2023-06-10T00:10:01;5.45;;;2.05;;
74469;SDS011;62918;55.706;37.816;2023-06-10T00:10:35;2.55;;;1.33;;
74469;SDS011;62918;55.706;37.816;2023-06-10T00:11:07;2.80;;;1.98;;
74469;SDS011;62918;55.706;37.816;2023-06-10T00:11:37;3.33;;;1.45;;
74469;SDS011;62918;55.706;37.816;2023-06-10T00:12:08;2.90;;;1.90;;
74469;SDS011;62918;55.706;37.816;2023-06-10T00:12:42;6.80;;;2.05;;
74469;SDS011;62918;55.706;37.816;2023-06-10T00:13:13;4.95;;;2.03;;
74469;SDS011;62918;55.706;37.816;2023-06-10T00:13:44;2.65;;;1.67;;
74469;SDS011;62918;55.706;37.816;2023-06-10T00:14:15;5.28;;;2.67;;
74469;SDS011;62918;55.706;37.816;2023-06-10T00:14:45;6.32;;;2.15;;
74469;SDS011;62918;55.706;37.816;2023-06-10T00:15:16;3.33;;;1.83;;
74469;SDS011;62918;55.706;37.816;2023-06-10T00:15:46;2.88;;;1.77;;
74469;SDS011;62918;55.706;37.816;2023-06-10T00:16:17;3.30;;;2.05;;
74469;SDS011;62918;55.706;37.816;2023-06-10T00:16:48;2.67;;;2.22;;
74469;SDS011;62918;55.706;37.816;2023-06-10T00:17:19;4.68;;;1.88;;
74469;SDS011;62918;55.706;37.816;2023-06-10T00:17:50;4.15;;;1.85;;
74469;SDS011;62918;55.706;37.816;2023-06-10T00:18:22;3.00;;;1.85;;
74469;SDS011;62918;55.706;37.816;2023-06-10T00:18:53;2.45;;;1.45;;
74469;SDS011;62918;55.706;37.816;2023-06-10T00:19:26;3.40;;;2.33;;
74469;SDS011;62918;55.706;37.816;2023-06-10T00:20:00;5.35;;;1.90;;
74469;SDS011;62918;55.706;37.816;2023-06-10T00:20:33;4.60;;;2.00;;
74469;SDS011;62918;55.706;37.816;2023-06-10T00:21:36;2.90;;;1.85;;
74469;SDS011;62918;55.706;37.816;2023-06-10T00:22:11;2.63;;;1.90;;
74469;SDS011;62918;55.706;37.816;2023-06-10T00:22:42;3.47;;;2.25;;
74469;SDS011;62918;55.706;37.816;2023-06-10T00:23:15;5.22;;;1.98;;
74469;SDS011;62918;55.706;37.816;2023-06-10T00:23:46;2.72;;;1.92;;
74469;SDS011;62918;55.706;37.816;2023-06-10T00:24:17;3.38;;;1.80;;
74469;SDS011;62918;55.706;37.816;2023-06-10T00:24:48;4.43;;;1.67;;
74469;SDS011;62918;55.706;37.816;2023-06-10T00:25:18;2.80;;;1.90;;
74469;SDS011;62918;55.706;37.816;2023-06-10T00:25:49;3.35;;;2.15;;
74469;SDS011;62918;55.706;37.816;2023-06-10T00:26:20;5.28;;;2.22;;
74469;SDS011;62918;55.706;37.816;2023-06-10T00:26:51;4.72;;;2.00;;
74469;SDS011;62918;55.706;37.816;2023-06-10T00:27:22;2.47;;;1.58;;
74469;SDS011;62918;55.706;37.816;2023-06-10T00:27:52;6.47;;;2.00;;
74469;SDS011;62918;55.706;37.816;2023-06-10T00:28:23;2.95;;;1.52;;
74469;SDS011;62918;55.706;37.816;2023-06-10T00:28:53;4.63;;;2.20;;
74469;SDS011;62918;55.706;37.816;2023-06-10T00:29:24;3.13;;;1.63;;
74469;SDS011;62918;55.706;37.816;2023-06-10T00:29:55;6.05;;;2.00;;
74469;SDS011;62918;55.706;37.816;2023-06-10T00:30:25;4.32;;;2.08;;
74469;SDS011;62918;55.706;37.816;2023-06-10T00:30:56;3.63;;;2.00;;
74469;SDS011;62918;55.706;37.816;2023-06-10T00:31:27;2.97;;;1.98;;
74469;SDS011;62918;55.706;37.816;2023-06-10T00:31:58;2.53;;;1.70;;
74469;SDS011;62918;55.706;37.816;2023-06-10T00:32:28;2.47;;;1.80;;
74469;SDS011;62918;55.706;37.816;2023-06-10T00:32:59;2.55;;;1.98;;
74469;SDS011;62918;55.706;37.816;2023-06-10T00:33:30;2.33;;;1.63;;
74469;SDS011;62918;55.706;37.816;2023-06-10T00:34:01;4.78;;;2.40;;
74469;SDS011;62918;55.706;37.816;2023-06-10T00:34:32;4.43;;;2.67;;
74469;SDS011;62918;55.706;37.816;2023-06-10T00:35:03;5.03;;;2.40;;
74469;SDS011;62918;55.706;37.816;2023-06-10T00:35:34;2.88;;;1.42;;
74469;SDS011;62918;55.706;37.816;2023-06-10T00:36:04;2.72;;;1.80;;
74469;SDS011;62918;55.706;37.816;2023-06-10T00:36:35;2.95;;;1.88;;
74469;SDS011;62918;55.706;37.816;2023-06-10T00:37:06;3.00;;;1.90;;
74469;SDS011;62918;55.706;37.816;2023-06-10T00:37:36;4.15;;;1.67;;
74469;SDS011;62918;55.706;37.816;2023-06-10T00:38:07;3.22;;;1.92;;
74469;SDS011;62918;55.706;37.816;2023-06-10T00:38:38;4.28;;;1.63;;
74469;SDS011;62918;55.706;37.816;2023-06-10T00:39:41;3.90;;;2.17;;
74469;SDS011;62918;55.706;37.816;2023-06-10T00:40:11;2.95;;;2.03;;
74469;SDS011;62918;55.706;37.816;2023-06-10T00:40:42;4.53;;;2.40;;
74469;SDS011;62918;55.706;37.816;2023-06-10T00:41:13;4.10;;;2.25;;
74469;SDS011;62918;55.706;37.816;2023-06-10T00:41:44;4.95;;;2.20;;
74469;SDS011;62918;55.706;37.816;2023-06-10T00:42:15;5.82;;;2.35;;
74469;SDS011;62918;55.706;37.816;2023-06-10T00:42:45;4.10;;;2.03;;
74469;SDS011;62918;55.706;37.816;2023-06-10T00:43:16;3.53;;;2.00;;
74469;SDS011;62918;55.706;37.816;2023-06-10T00:43:46;4.88;;;2.45;;
74469;SDS011;62918;55.706;37.816;2023-06-10T00:44:17;4.05;;;2.33;;
74469;SDS011;62918;55.706;37.816;2023-06-10T00:44:47;4.45;;;3.13;;
74469;SDS011;62918;55.706;37.816;2023-06-10T00:45:18;7.72;;;2.72;;
74469;SDS011;62918;55.706;37.816;2023-06-10T00:45:49;5.05;;;2.33;;
74469;SDS011;62918;55.706;37.816;2023-06-10T00:46:20;2.95;;;2.40;;
74469;SDS011;62918;55.706;37.816;2023-06-10T00:46:52;4.78;;;2.38;;
74469;SDS011;62918;55.706;37.816;2023-06-10T00:47:25;3.97;;;2.40;;
74469;SDS011;62918;55.706;37.816;2023-06-10T00:47:57;3.72;;;2.08;;
74469;SDS011;62918;55.706;37.816;2023-06-10T00:48:28;3.40;;;2.03;;
74469;SDS011;62918;55.706;37.816;2023-06-10T00:48:59;4.45;;;2.08;;
74469;SDS011;62918;55.706;37.816;2023-06-10T00:49:30;4.85;;;2.15;;
74469;SDS011;62918;55.706;37.816;2023-06-10T00:50:01;3.78;;;2.55;;
74469;SDS011;62918;55.706;37.816;2023-06-10T00:50:33;4.15;;;2.30;;
74469;SDS011;62918;55.706;37.816;2023-06-10T00:51:04;9.02;;;2.63;;
74469;SDS011;62918;55.706;37.816;2023-06-10T00:51:35;3.42;;;2.33;;
74469;SDS011;62918;55.706;37.816;2023-06-10T00:52:06;2.90;;;2.20;;
74469;SDS011;62918;55.706;37.816;2023-06-10T00:52:37;4.85;;;2.63;;
74469;SDS011;62918;55.706;37.816;2023-06-10T00:53:08;2.75;;;1.40;;
74469;SDS011;62918;55.706;37.816;2023-06-10T00:53:40;4.80;;;2.50;;
74469;SDS011;62918;55.706;37.816;2023-06-10T00:54:11;3.33;;;2.25;;
74469;SDS011;62918;55.706;37.816;2023-06-10T00:54:43;3.47;;;2.50;;
74469;SDS011;62918;55.706;37.816;2023-06-10T00:55:16;3.13;;;2.22;;
74469;SDS011;62918;55.706;37.816;2023-06-10T00:55:47;5.13;;;2.88;;
74469;SDS011;62918;55.706;37.816;2023-06-10T00:56:18;4.10;;;2.47;;
74469;SDS011;62918;55.706;37.816;2023-06-10T00:56:49;4.07;;;2.53;;
74469;SDS011;62918;55.706;37.816;2023-06-10T00:57:20;3.97;;;2.05;;
74469;SDS011;62918;55.706;37.816;2023-06-10T00:57:51;4.03;;;2.30;;
74469;SDS011;62918;55.706;37.816;2023-06-10T00:58:24;5.18;;;2.47;;
74469;SDS011;62918;55.706;37.816;2023-06-10T00:58:55;4.05;;;2.00;;
74469;SDS011;62918;55.706;37.816;2023-06-10T00:59:26;3.95;;;2.55;;
74469;SDS011;62918;55.706;37.816;2023-06-10T00:59:58;3.75;;;2.28;;
74469;SDS011;62918;55.706;37.816;2023-06-10T01:00:29;4.28;;;2.30;;
74469;SDS011;62918;55.706;37.816;2023-06-10T01:00:59;3.22;;;2.40;;
74469;SDS011;62918;55.706;37.816;2023-06-10T01:01:30;4.07;;;2.50;;
74469;SDS011;62918;55.706;37.816;2023-06-10T01:02:03;5.43;;;2.50;;
74469;SDS011;62918;55.706;37.816;2023-06-10T01:02:34;4.45;;;2.50;;
74469;SDS011;62918;55.706;37.816;2023-06-10T01:03:05;3.13;;;2.08;;
74469;SDS011;62918;55.706;37.816;2023-06-10T01:03:38;3.13;;;2.33;;
74469;SDS011;62918;55.706;37.816;2023-06-10T01:04:10;3.30;;;1.98;;
74469;SDS011;62918;55.706;37.816;2023-06-10T01:05:13;4.28;;;2.45;;
74469;SDS011;62918;55.706;37.816;2023-06-10T01:05:44;5.10;;;2.60;;
74469;SDS011;62918;55.706;37.816;2023-06-10T01:07:53;6.57;;;2.15;;
74469;SDS011;62918;55.706;37.816;2023-06-10T01:10:11;3.28;;;2.35;;
74469;SDS011;62918;55.706;37.816;2023-06-10T01:11:04;3.67;;;2.40;;
74469;SDS011;62918;55.706;37.816;2023-06-10T01:11:43;6.60;;;2.60;;
74469;SDS011;62918;55.706;37.816;2023-06-10T01:13:02;5.20;;;2.50;;
74469;SDS011;62918;55.706;37.816;2023-06-10T01:13:20;5.53;;;2.15;;
74469;SDS011;62918;55.706;37.816;2023-06-10T01:13:53;6.05;;;2.50;;
74469;SDS011;62918;55.706;37.816;2023-06-10T01:14:29;3.85;;;2.83;;
74469;SDS011;62918;55.706;37.816;2023-06-10T01:15:01;3.78;;;2.50;;
74469;SDS011;62918;55.706;37.816;2023-06-10T01:15:34;4.00;;;2.53;;
74469;SDS011;62918;55.706;37.816;2023-06-10T01:16:05;4.03;;;2.50;;
74469;SDS011;62918;55.706;37.816;2023-06-10T01:16:36;5.93;;;2.53;;
74469;SDS011;62918;55.706;37.816;2023-06-10T01:17:07;5.22;;;2.60;;
74469;SDS011;62918;55.706;37.816;2023-06-10T01:17:53;3.45;;;2.72;;
74469;SDS011;62918;55.706;37.816;2023-06-10T01:18:30;4.30;;;2.67;;
74469;SDS011;62918;55.706;37.816;2023-06-10T01:19:02;3.88;;;2.22;;
74469;SDS011;62918;55.706;37.816;2023-06-10T01:19:33;3.78;;;2.25;;
74469;SDS011;62918;55.706;37.816;2023-06-10T01:20:04;3.45;;;2.53;;
74469;SDS011;62918;55.706;37.816;2023-06-10T01:20:35;4.35;;;2.50;;
74469;SDS011;62918;55.706;37.816;2023-06-10T01:21:13;4.30;;;2.80;;
74469;SDS011;62918;55.706;37.816;2023-06-10T01:21:50;3.70;;;2.60;;
74469;SDS011;62918;55.706;37.816;2023-06-10T01:22:30;4.03;;;2.67;;
74469;SDS011;62918;55.706;37.816;2023-06-10T01:23:06;3.95;;;3.15;;
74469;SDS011;62918;55.706;37.816;2023-06-10T01:23:38;5.85;;;2.67;;
74469;SDS011;62918;55.706;37.816;2023-06-10T01:24:08;5.40;;;3.05;;
74469;SDS011;62918;55.706;37.816;2023-06-10T01:25:11;4.22;;;2.63;;
74469;SDS011;62918;55.706;37.816;2023-06-10T01:26:02;4.47;;;2.97;;
74469;SDS011;62918;55.706;37.816;2023-06-10T01:26:35;4.85;;;2.70;;
74469;SDS011;62918;55.706;37.816;2023-06-10T01:27:09;4.57;;;2.78;;
74469;SDS011;62918;55.706;37.816;2023-06-10T01:27:44;4.35;;;2.60;;
74469;SDS011;62918;55.706;37.816;2023-06-10T01:28:18;3.33;;;2.88;;
74469;SDS011;62918;55.706;37.816;2023-06-10T01:28:57;5.07;;;3.03;;
74469;SDS011;62918;55.706;37.816;2023-06-10T01:29:36;4.63;;;3.30;;
74469;SDS011;62918;55.706;37.816;2023-06-10T01:30:11;3.35;;;2.42;;
74469;SDS011;62918;55.706;37.816;2023-06-10T01:30:50;6.63;;;3.15;;
74469;SDS011;62918;55.706;37.816;2023-06-10T01:32:21;4.35;;;2.63;;
74469;SDS011;62918;55.706;37.816;2023-06-10T01:32:56;4.97;;;2.58;;
74469;SDS011;62918;55.706;37.816;2023-06-10T01:33:31;4.78;;;2.30;;
74469;SDS011;62918;55.706;37.816;2023-06-10T01:34:07;5.88;;;2.80;;
74469;SDS011;62918;55.706;37.816;2023-06-10T01:34:41;4.65;;;2.90;;
74469;SDS011;62918;55.706;37.816;2023-06-10T01:35:13;7.03;;;3.42;;
74469;SDS011;62918;55.706;37.816;2023-06-10T01:35:44;6.25;;;3.30;;
74469;SDS011;62918;55.706;37.816;2023-06-10T01:36:17;5.05;;;3.05;;
74469;SDS011;62918;55.706;37.816;2023-06-10T01:36:50;3.63;;;3.08;;
74469;SDS011;62918;55.706;37.816;2023-06-10T01:37:21;3.50;;;3.00;;
74469;SDS011;62918;55.706;37.816;2023-06-10T01:37:55;4.65;;;3.13;;
74469;SDS011;62918;55.706;37.816;2023-06-10T01:38:30;3.90;;;3.00;;
74469;SDS011;62918;55.706;37.816;2023-06-10T01:39:04;5.50;;;3.05;;
74469;SDS011;62918;55.706;37.816;2023-06-10T01:39:36;5.63;;;2.60;;
74469;SDS011;62918;55.706;37.816;2023-06-10T01:40:07;6.00;;;3.40;;
74469;SDS011;62918;55.706;37.816;2023-06-10T01:40:39;6.32;;;3.22;;
74469;SDS011;62918;55.706;37.816;2023-06-10T01:41:16;3.33;;;2.70;;
74469;SDS011;62918;55.706;37.816;2023-06-10T01:41:48;4.70;;;3.35;;
74469;SDS011;62918;55.706;37.816;2023-06-10T01:42:20;4.40;;;3.20;;
74469;SDS011;62918;55.706;37.816;2023-06-10T01:42:51;4.75;;;3.38;;
74469;SDS011;62918;55.706;37.816;2023-06-10T01:43:22;4.47;;;2.60;;
74469;SDS011;62918;55.706;37.816;2023-06-10T01:43:54;4.43;;;3.42;;
74469;SDS011;62918;55.706;37.816;2023-06-10T01:44:24;3.78;;;3.30;;
74469;SDS011;62918;55.706;37.816;2023-06-10T01:44:55;7.07;;;3.20;;
74469;SDS011;62918;55.706;37.816;2023-06-10T01:45:26;5.03;;;3.22;;
74469;SDS011;62918;55.706;37.816;2023-06-10T01:45:57;5.78;;;3.38;;
74469;SDS011;62918;55.706;37.816;2023-06-10T01:46:27;3.85;;;3.00;;
74469;SDS011;62918;55.706;37.816;2023-06-10T01:46:58;5.53;;;3.20;;
74469;SDS011;62918;55.706;37.816;2023-06-10T01:47:28;6.38;;;3.42;;
74469;SDS011;62918;55.706;37.816;2023-06-10T01:47:59;4.50;;;3.17;;
74469;SDS011;62918;55.706;37.816;2023-06-10T01:48:30;5.45;;;3.00;;
74469;SDS011;62918;55.706;37.816;2023-06-10T01:49:00;6.43;;;3.20;;
74469;SDS011;62918;55.706;37.816;2023-06-10T01:49:31;4.05;;;2.55;;
74469;SDS011;62918;55.706;37.816;2023-06-10T01:50:01;8.15;;;4.25;;
74469;SDS011;62918;55.706;37.816;2023-06-10T01:50:33;3.88;;;2.90;;
74469;SDS011;62918;55.706;37.816;2023-06-10T01:51:04;3.33;;;2.22;;
74469;SDS011;62918;55.706;37.816;2023-06-10T01:51:35;4.20;;;2.85;;
74469;SDS011;62918;55.706;37.816;2023-06-10T01:52:06;3.65;;;3.00;;
74469;SDS011;62918;55.706;37.816;2023-06-10T01:52:37;4.35;;;2.78;;
74469;SDS011;62918;55.706;37.816;2023-06-10T01:53:07;4.50;;;2.83;;
74469;SDS011;62918;55.706;37.816;2023-06-10T01:53:38;5.20;;;3.75;;
74469;SDS011;62918;55.706;37.816;2023-06-10T01:54:09;8.30;;;2.88;;
74469;SDS011;62918;55.706;37.816;2023-06-10T01:54:39;5.75;;;3.20;;
74469;SDS011;62918;55.706;37.816;2023-06-10T01:55:10;3.75;;;2.72;;
74469;SDS011;62918;55.706;37.816;2023-06-10T01:55:40;4.40;;;2.90;;
74469;SDS011;62918;55.706;37.816;2023-06-10T01:56:11;5.32;;;3.80;;
74469;SDS011;62918;55.706;37.816;2023-06-10T01:56:46;5.65;;;2.88;;
74469;SDS011;62918;55.706;37.816;2023-06-10T01:57:17;4.20;;;3.20;;
74469;SDS011;62918;55.706;37.816;2023-06-10T01:57:48;6.13;;;3.30;;
74469;SDS011;62918;55.706;37.816;2023-06-10T01:58:18;3.92;;;2.90;;
74469;SDS011;62918;55.706;37.816;2023-06-10T01:58:49;4.63;;;3.22;;
74469;SDS011;62918;55.706;37.816;2023-06-10T01:59:19;5.22;;;2.85;;
74469;SDS011;62918;55.706;37.816;2023-06-10T01:59:50;5.07;;;3.33;;
74469;SDS011;62918;55.706;37.816;2023-06-10T02:00:21;9.23;;;3.50;;
74469;SDS011;62918;55.706;37.816;2023-06-10T02:00:51;6.43;;;3.45;;
74469;SDS011;62918;55.706;37.816;2023-06-10T02:01:22;4.65;;;2.80;;
74469;SDS011;62918;55.706;37.816;2023-06-10T02:01:52;7.28;;;3.03;;
74469;SDS011;62918;55.706;37.816;2023-06-10T02:02:23;4.30;;;3.03;;
74469;SDS011;62918;55.706;37.816;2023-06-10T02:02:54;3.72;;;2.72;;
74469;SDS011;62918;55.706;37.816;2023-06-10T02:03:25;4.65;;;2.80;;
74469;SDS011;62918;55.706;37.816;2023-06-10T02:03:55;5.60;;;3.05;;
74469;SDS011;62918;55.706;37.816;2023-06-10T02:04:26;2.88;;;2.08;;
74469;SDS011;62918;55.706;37.816;2023-06-10T02:04:56;5.28;;;2.97;;
74469;SDS011;62918;55.706;37.816;2023-06-10T02:05:27;7.43;;;2.03;;
74469;SDS011;62918;55.706;37.816;2023-06-10T02:05:57;3.22;;;2.13;;
74469;SDS011;62918;55.706;37.816;2023-06-10T02:06:28;5.18;;;2.97;;
74469;SDS011;62918;55.706;37.816;2023-06-10T02:06:58;4.35;;;3.35;;
74469;SDS011;62918;55.706;37.816;2023-06-10T02:07:29;4.28;;;3.00;;
74469;SDS011;62918;55.706;37.816;2023-06-10T02:08:00;3.92;;;2.72;;
74469;SDS011;62918;55.706;37.816;2023-06-10T02:08:31;3.90;;;3.05;;
74469;SDS011;62918;55.706;37.816;2023-06-10T02:09:01;3.33;;;2.30;;
74469;SDS011;62918;55.706;37.816;2023-06-10T02:09:32;5.03;;;2.10;;
74469;SDS011;62918;55.706;37.816;2023-06-10T02:10:05;6.00;;;2.72;;
74469;SDS011;62918;55.706;37.816;2023-06-10T02:10:37;5.45;;;1.90;;
74469;SDS011;62918;55.706;37.816;2023-06-10T02:11:07;5.88;;;3.28;;
74469;SDS011;62918;55.706;37.816;2023-06-10T02:11:38;6.90;;;2.80;;
74469;SDS011;62918;55.706;37.816;2023-06-10T02:12:08;6.65;;;2.50;;
74469;SDS011;62918;55.706;37.816;2023-06-10T02:12:40;5.00;;;2.83;;
74469;SDS011;62918;55.706;37.816;2023-06-10T02:13:10;5.20;;;2.70;;
74469;SDS011;62918;55.706;37.816;2023-06-10T02:13:41;3.47;;;2.45;;
74469;SDS011;62918;55.706;37.816;2023-06-10T02:14:12;7.85;;;2.80;;
74469;SDS011;62918;55.706;37.816;2023-06-10T02:14:43;3.83;;;2.80;;
74469;SDS011;62918;55.706;37.816;2023-06-10T02:15:13;5.78;;;2.55;;
74469;SDS011;62918;55.706;37.816;2023-06-10T02:15:44;3.58;;;2.67;;
74469;SDS011;62918;55.706;37.816;2023-06-10T02:16:15;4.85;;;2.65;;
74469;SDS011;62918;55.706;37.816;2023-06-10T02:16:47;3.75;;;3.40;;
74469;SDS011;62918;55.706;37.816;2023-06-10T02:17:17;3.67;;;2.65;;
74469;SDS011;62918;55.706;37.816;2023-06-10T02:17:49;3.80;;;2.80;;
74469;SDS011;62918;55.706;37.816;2023-06-10T02:18:20;4.38;;;2.60;;
74469;SDS011;62918;55.706;37.816;2023-06-10T02:18:52;4.82;;;2.70;;
74469;SDS011;62918;55.706;37.816;2023-06-10T02:19:22;4.07;;;2.67;;
74469;SDS011;62918;55.706;37.816;2023-06-10T02:19:53;5.65;;;2.60;;
74469;SDS011;62918;55.706;37.816;2023-06-10T02:20:24;4.70;;;2.47;;
74469;SDS011;62918;55.706;37.816;2023-06-10T02:20:54;3.80;;;2.45;;
74469;SDS011;62918;55.706;37.816;2023-06-10T02:21:25;4.28;;;2.88;;
74469;SDS011;62918;55.706;37.816;2023-06-10T02:21:55;4.80;;;2.55;;
74469;SDS011;62918;55.706;37.816;2023-06-10T02:22:26;4.35;;;2.70;;
74469;SDS011;62918;55.706;37.816;2023-06-10T02:22:58;4.35;;;2.63;;
74469;SDS011;62918;55.706;37.816;2023-06-10T02:23:29;3.83;;;3.13;;
74469;SDS011;62918;55.706;37.816;2023-06-10T02:23:59;4.18;;;2.88;;
74469;SDS011;62918;55.706;37.816;2023-06-10T02:24:30;5.13;;;2.72;;
74469;SDS011;62918;55.706;37.816;2023-06-10T02:25:01;3.85;;;2.70;;
74469;SDS011;62918;55.706;37.816;2023-06-10T02:25:31;3.45;;;2.40;;
74469;SDS011;62918;55.706;37.816;2023-06-10T02:26:02;4.13;;;2.75;;
74469;SDS011;62918;55.706;37.816;2023-06-10T02:26:32;4.38;;;2.40;;
74469;SDS011;62918;55.706;37.816;2023-06-10T02:27:04;4.20;;;2.58;;
74469;SDS011;62918;55.706;37.816;2023-06-10T02:27:36;6.18;;;2.70;;
74469;SDS011;62918;55.706;37.816;2023-06-10T02:28:07;4.72;;;2.28;;
74469;SDS011;62918;55.706;37.816;2023-06-10T02:28:37;2.75;;;2.40;;
74469;SDS011;62918;55.706;37.816;2023-06-10T02:29:08;4.22;;;2.30;;
74469;SDS011;62918;55.706;37.816;2023-06-10T02:29:39;4.40;;;2.30;;
74469;SDS011;62918;55.706;37.816;2023-06-10T02:30:11;7.97;;;2.58;;
74469;SDS011;62918;55.706;37.816;2023-06-10T02:30:42;5.32;;;2.58;;
74469;SDS011;62918;55.706;37.816;2023-06-10T02:31:13;3.13;;;1.52;;
74469;SDS011;62918;55.706;37.816;2023-06-10T02:31:44;4.28;;;2.67;;
74469;SDS011;62918;55.706;37.816;2023-06-10T02:32:14;5.20;;;2.83;;
74469;SDS011;62918;55.706;37.816;2023-06-10T02:32:45;4.28;;;1.58;;
74469;SDS011;62918;55.706;37.816;2023-06-10T02:33:18;5.10;;;2.25;;
74469;SDS011;62918;55.706;37.816;2023-06-10T02:33:48;4.03;;;1.63;;
74469;SDS011;62918;55.706;37.816;2023-06-10T02:34:18;4.45;;;2.30;;
74469;SDS011;62918;55.706;37.816;2023-06-10T02:34:49;5.97;;;2.20;;
74469;SDS011;62918;55.706;37.816;2023-06-10T02:35:20;5.47;;;2.45;;
74469;SDS011;62918;55.706;37.816;2023-06-10T02:35:54;4.45;;;2.10;;
74469;SDS011;62918;55.706;37.816;2023-06-10T02:36:26;5.22;;;2.65;;
74469;SDS011;62918;55.706;37.816;2023-06-10T02:36:58;5.88;;;3.20;;
74469;SDS011;62918;55.706;37.816;2023-06-10T02:37:28;6.05;;;2.55;;
74469;SDS011;62918;55.706;37.816;2023-06-10T02:37:59;4.05;;;2.05;;
74469;SDS011;62918;55.706;37.816;2023-06-10T02:38:29;3.40;;;2.58;;
74469;SDS011;62918;55.706;37.816;2023-06-10T02:39:00;3.40;;;2.33;;
74469;SDS011;62918;55.706;37.816;2023-06-10T02:39:30;5.50;;;2.42;;
74469;SDS011;62918;55.706;37.816;2023-06-10T02:40:01;3.72;;;2.38;;
74469;SDS011;62918;55.706;37.816;2023-06-10T02:40:32;3.08;;;2.17;;
74469;SDS011;62918;55.706;37.816;2023-06-10T02:41:02;7.15;;;2.58;;
74469;SDS011;62918;55.706;37.816;2023-06-10T02:41:33;3.40;;;2.38;;
74469;SDS011;62918;55.706;37.816;2023-06-10T02:42:04;4.95;;;2.58;;
74469;SDS011;62918;55.706;37.816;2023-06-10T02:42:35;2.60;;;1.88;;
74469;SDS011;62918;55.706;37.816;2023-06-10T02:43:06;5.38;;;1.95;;
74469;SDS011;62918;55.706;37.816;2023-06-10T02:43:37;4.97;;;2.15;;
74469;SDS011;62918;55.706;37.816;2023-06-10T02:44:07;4.22;;;2.75;;
74469;SDS011;62918;55.706;37.816;2023-06-10T02:44:38;5.28;;;2.83;;
74469;SDS011;62918;55.706;37.816;2023-06-10T02:45:09;3.95;;;2.10;;
74469;SDS011;62918;55.706;37.816;2023-06-10T02:45:40;3.50;;;1.70;;
74469;SDS011;62918;55.706;37.816;2023-06-10T02:46:10;7.35;;;2.70;;
74469;SDS011;62918;55.706;37.816;2023-06-10T02:46:41;4.65;;;2.90;;
74469;SDS011;62918;55.706;37.816;2023-06-10T02:47:11;4.72;;;3.03;;
74469;SDS011;62918;55.706;37.816;2023-06-10T02:47:42;2.90;;;1.98;;
74469;SDS011;62918;55.706;37.816;2023-06-10T02:48:12;3.40;;;1.58;;
74469;SDS011;62918;55.706;37.816;2023-06-10T02:48:43;6.10;;;2.45;;
74469;SDS011;62918;55.706;37.816;2023-06-10T02:49:14;2.88;;;2.03;;
74469;SDS011;62918;55.706;37.816;2023-06-10T02:49:44;4.55;;;2.42;;
74469;SDS011;62918;55.706;37.816;2023-06-10T02:50:15;3.38;;;3.03;;
74469;SDS011;62918;55.706;37.816;2023-06-10T02:50:46;4.20;;;2.22;;
74469;SDS011;62918;55.706;37.816;2023-06-10T02:51:16;3.83;;;2.30;;
74469;SDS011;62918;55.706;37.816;2023-06-10T02:51:47;2.55;;;2.13;;
74469;SDS011;62918;55.706;37.816;2023-06-10T02:52:18;3.08;;;2.45;;
74469;SDS011;62918;55.706;37.816;2023-06-10T02:52:48;2.75;;;2.30;;
74469;SDS011;62918;55.706;37.816;2023-06-10T02:53:20;2.80;;;2.22;;
74469;SDS011;62918;55.706;37.816;2023-06-10T02:53:50;3.65;;;2.25;;
74469;SDS011;62918;55.706;37.816;2023-06-10T02:54:21;4.70;;;2.33;;
74469;SDS011;62918;55.706;37.816;2023-06-10T02:54:52;4.10;;;2.25;;
74469;SDS011;62918;55.706;37.816;2023-06-10T02:55:23;2.50;;;2.00;;
74469;SDS011;62918;55.706;37.816;2023-06-10T02:55:56;5.40;;;2.53;;
74469;SDS011;62918;55.706;37.816;2023-06-10T02:56:26;5.82;;;2.35;;
74469;SDS011;62918;55.706;37.816;2023-06-10T02:56:57;3.08;;;2.10;;
74469;SDS011;62918;55.706;37.816;2023-06-10T02:57:27;3.15;;;1.23;;
74469;SDS011;62918;55.706;37.816;2023-06-10T02:57:58;3.75;;;2.25;;
74469;SDS011;62918;55.706;37.816;2023-06-10T02:58:30;7.30;;;3.20;;
74469;SDS011;62918;55.706;37.816;2023-06-10T02:59:01;3.75;;;2.92;;
74469;SDS011;62918;55.706;37.816;2023-06-10T02:59:31;3.97;;;2.60;;
74469;SDS011;62918;55.706;37.816;2023-06-10T03:00:02;4.25;;;2.25;;
74469;SDS011;62918;55.706;37.816;2023-06-10T03:00:39;6.90;;;3.05;;
74469;SDS011;62918;55.706;37.816;2023-06-10T03:01:11;4.13;;;3.72;;
74469;SDS011;62918;55.706;37.816;2023-06-10T03:01:42;4.63;;;4.13;;
74469;SDS011;62918;55.706;37.816;2023-06-10T03:02:13;3.88;;;3.35;;
74469;SDS011;62918;55.706;37.816;2023-06-10T03:02:43;7.78;;;3.17;;
74469;SDS011;62918;55.706;37.816;2023-06-10T03:03:15;5.47;;;3.95;;
74469;SDS011;62918;55.706;37.816;2023-06-10T03:03:46;4.97;;;3.92;;
74469;SDS011;62918;55.706;37.816;2023-06-10T03:04:17;5.38;;;3.17;;
74469;SDS011;62918;55.706;37.816;2023-06-10T03:04:48;3.80;;;3.50;;
74469;SDS011;62918;55.706;37.816;2023-06-10T03:05:20;5.03;;;3.88;;
74469;SDS011;62918;55.706;37.816;2023-06-10T03:05:52;4.07;;;3.50;;
74469;SDS011;62918;55.706;37.816;2023-06-10T03:06:23;4.88;;;2.28;;
74469;SDS011;62918;55.706;37.816;2023-06-10T03:06:54;4.57;;;3.13;;
74469;SDS011;62918;55.706;37.816;2023-06-10T03:07:25;4.78;;;3.40;;
74469;SDS011;62918;55.706;37.816;2023-06-10T03:07:56;3.67;;;3.03;;
74469;SDS011;62918;55.706;37.816;2023-06-10T03:08:26;8.00;;;2.95;;
74469;SDS011;62918;55.706;37.816;2023-06-10T03:08:57;4.03;;;3.47;;
74469;SDS011;62918;55.706;37.816;2023-06-10T03:09:27;3.28;;;2.72;;
74469;SDS011;62918;55.706;37.816;2023-06-10T03:09:58;4.05;;;2.53;;
74469;SDS011;62918;55.706;37.816;2023-06-10T03:10:28;3.33;;;2.50;;
74469;SDS011;62918;55.706;37.816;2023-06-10T03:10:59;2.97;;;1.90;;
74469;SDS011;62918;55.706;37.816;2023-06-10T03:11:30;3.47;;;2.83;;
74469;SDS011;62918;55.706;37.816;2023-06-10T03:12:00;4.95;;;2.63;;
74469;SDS011;62918;55.706;37.816;2023-06-10T03:12:31;3.60;;;2.88;;
74469;SDS011;62918;55.706;37.816;2023-06-10T03:13:02;3.90;;;3.03;;
74469;SDS011;62918;55.706;37.816;2023-06-10T03:13:32;4.40;;;2.58;;
74469;SDS011;62918;55.706;37.816;2023-06-10T03:14:03;3.58;;;2.00;;